Briefing drone pour Vizille

Rechercher une autre localisation

Conditions de vol :


Nous sommes le : Dimanche 09 mai 2021
Il est 02:14 UTC (04:14 LT)

Lever de soleil : 03:48 UTC (05:48 LT)
Coucher de soleil : 19:18 UTC (21:18 LT)

Météo

L'essentiel des conditions de vol

VIGILANCE MÉTÉO FRANCE - Isère (38)
Vigilance Jaune : Vent violent
CARTE TEMSI
CARTES DES FRONTS
METAR de LFLS
LFLS 090200Z AUTO 23005KT CAVOK 13/09 Q1014

Date d'émission: 09/05/2021
Heure d'émission: 02:00 UTC
Vent: 230° pour 5 KT (9 km/h)
Visibilité horizontale: > 10 km
Plafond : Plafond et visibilité OK (CAVOK)
Température: 13 °C
Point de rosée: 9 °C
Humidité: 77%
Pression (QNH): 1014 hPa
TAF de LFLS
LFLS 081920Z 0819/0915 CNL

Conditions prévues :

Heure d'émission : Bulletin éffectué le 08 à 19:00 UTC
Prévision : Valide du 08 a 19:00 UTC au 09 a 15:00 UTC
Nuages : à 0ft (0 m)
WEBCAM POUR VIZILLE

Réglementation

Voler en sécurité

CARTES AERONAUTIQUE 1/500.000
CARTES VAC (LFLS)
SUP AIP




Chargement des AIP...
NOTAM (VIZILLE + Terrain à proximité / FIR )




Chargement des NOTAMS...
CONTACT PREFECTURE 38


Avertissement : Les données mises à disposition sont indicatives. Oxygène Drone ne pourra être tenu responsable de dégâts causés aux biens et aux personnes.